createdAt,value
2018-12-02T00:01:57.349Z,5.37
2018-12-02T00:04:26.908Z,5.47
2018-12-02T00:06:56.666Z,5.90
2018-12-02T00:09:26.775Z,5.63
2018-12-02T00:11:56.339Z,5.57
2018-12-02T00:14:26.260Z,5.33
2018-12-02T00:16:55.793Z,5.93
2018-12-02T00:19:25.243Z,6.03
2018-12-02T00:21:54.842Z,5.57
2018-12-02T00:24:24.208Z,5.90
2018-12-02T00:26:55.176Z,5.27
2018-12-02T00:29:24.661Z,5.40
2018-12-02T00:31:54.117Z,5.27
2018-12-02T00:34:23.442Z,5.00
2018-12-02T00:36:53.367Z,5.47
2018-12-02T00:39:23.255Z,5.70
2018-12-02T00:41:52.688Z,5.00
2018-12-02T00:44:22.143Z,5.30
2018-12-02T00:46:51.610Z,5.40
2018-12-02T00:49:21.189Z,5.17
2018-12-02T00:51:50.654Z,5.50
2018-12-02T00:54:20.273Z,4.67
2018-12-02T00:56:49.767Z,5.33
2018-12-02T00:59:19.210Z,5.90
2018-12-02T01:01:48.573Z,5.17
2018-12-02T01:04:18.121Z,5.07
2018-12-02T01:06:47.600Z,5.70
2018-12-02T01:09:16.964Z,5.23
2018-12-02T01:11:46.445Z,5.37
2018-12-02T01:14:15.901Z,4.67
2018-12-02T01:16:45.473Z,5.40
2018-12-02T01:19:15.051Z,5.13
2018-12-02T01:21:44.513Z,5.13
2018-12-02T01:24:14.104Z,5.30
2018-12-02T01:26:43.545Z,5.10
2018-12-02T01:29:12.931Z,5.03
2018-12-02T01:31:42.470Z,5.60
2018-12-02T01:34:11.994Z,5.27
2018-12-02T01:36:41.415Z,4.57
2018-12-02T01:39:10.876Z,5.10
2018-12-02T01:41:40.289Z,5.60
2018-12-02T01:44:09.795Z,4.97
2018-12-02T01:46:39.152Z,5.57
2018-12-02T01:49:08.567Z,5.20
2018-12-02T01:51:37.919Z,5.20
2018-12-02T01:54:07.649Z,4.47
2018-12-02T01:56:37.108Z,5.30
2018-12-02T01:59:07.419Z,5.13
2018-12-02T02:01:36.909Z,5.13
2018-12-02T02:04:06.792Z,5.67
2018-12-02T02:06:37.677Z,5.63
2018-12-02T02:09:09.718Z,5.50
2018-12-02T02:11:39.571Z,5.63
2018-12-02T02:14:09.018Z,5.70
2018-12-02T02:16:38.883Z,5.63
2018-12-02T02:19:08.358Z,5.80
2018-12-02T02:21:37.783Z,5.20
2018-12-02T02:24:07.584Z,5.87
2018-12-02T02:26:37.098Z,5.60
2018-12-02T02:29:06.817Z,5.17
2018-12-02T02:31:36.951Z,5.47
2018-12-02T02:34:06.918Z,5.33
2018-12-02T02:36:36.271Z,5.67
2018-12-02T02:39:08.582Z,6.10
2018-12-02T02:41:37.964Z,5.40
2018-12-02T02:44:07.423Z,6.40
2018-12-02T02:46:36.969Z,5.60
2018-12-02T02:49:07.428Z,5.17
2018-12-02T02:51:36.787Z,5.53
2018-12-02T02:54:06.799Z,5.37
2018-12-02T02:56:36.376Z,5.43
2018-12-02T02:59:06.564Z,5.87
2018-12-02T03:01:36.197Z,5.73
2018-12-02T03:04:05.787Z,6.33
2018-12-02T03:06:35.354Z,6.23
2018-12-02T03:09:07.971Z,5.37
2018-12-02T03:11:37.397Z,6.00
2018-12-02T03:14:06.854Z,5.53
2018-12-02T03:16:36.296Z,6.20
2018-12-02T03:19:06.042Z,5.70
2018-12-02T03:21:35.522Z,6.17
2018-12-02T03:24:04.993Z,5.90
2018-12-02T03:26:34.512Z,5.57
2018-12-02T03:29:04.035Z,5.73
2018-12-02T03:31:33.557Z,5.93
2018-12-02T03:34:02.894Z,6.00
2018-12-02T03:36:32.320Z,5.70
2018-12-02T03:39:01.785Z,6.13
2018-12-02T03:41:31.205Z,5.70
2018-12-02T03:44:01.481Z,6.00
2018-12-02T03:46:31.028Z,5.83
2018-12-02T03:49:00.543Z,5.40
2018-12-02T03:51:29.898Z,5.97
2018-12-02T03:54:00.198Z,5.30
2018-12-02T03:56:29.668Z,4.90
2018-12-02T03:58:59.113Z,5.80
2018-12-02T04:01:28.682Z,5.40
2018-12-02T04:03:58.199Z,4.80
2018-12-02T04:06:27.558Z,5.27
2018-12-02T04:08:57.237Z,4.83
2018-12-02T04:11:26.574Z,4.77
2018-12-02T04:13:56.117Z,4.40
2018-12-02T04:16:25.580Z,4.57
2018-12-02T04:18:55.554Z,4.87
2018-12-02T04:21:25.056Z,4.43
2018-12-02T04:23:54.571Z,4.80
2018-12-02T04:26:23.960Z,4.70
2018-12-02T04:28:53.387Z,4.77
2018-12-02T04:31:22.800Z,4.67
2018-12-02T04:33:52.690Z,4.90
2018-12-02T04:36:22.413Z,4.20
2018-12-02T04:38:51.861Z,4.20
2018-12-02T04:41:21.280Z,4.40
2018-12-02T04:43:50.765Z,4.40
2018-12-02T04:46:20.188Z,4.63
2018-12-02T04:48:49.633Z,4.13
2018-12-02T04:51:19.927Z,4.37
2018-12-02T04:53:49.499Z,4.40
2018-12-02T04:56:18.963Z,4.00
2018-12-02T04:58:48.446Z,4.73
2018-12-02T05:01:18.367Z,4.30
2018-12-02T05:03:48.718Z,4.40
2018-12-02T05:06:18.095Z,3.83
2018-12-02T05:08:47.667Z,3.93
2018-12-02T05:11:17.119Z,3.73
2018-12-02T05:13:46.765Z,3.43
2018-12-02T05:16:16.115Z,4.03
2018-12-02T05:18:45.484Z,3.30
2018-12-02T05:21:14.920Z,3.60
2018-12-02T05:23:45.100Z,3.50
2018-12-02T05:26:14.578Z,3.77
2018-12-02T05:28:44.042Z,3.73
2018-12-02T05:31:13.444Z,3.23
2018-12-02T05:33:42.948Z,3.17
2018-12-02T05:36:13.615Z,3.17
2018-12-02T05:38:43.124Z,3.50
2018-12-02T05:41:12.504Z,3.37
2018-12-02T05:43:42.740Z,3.20
2018-12-02T05:46:12.108Z,3.60
2018-12-02T05:48:41.636Z,3.40
2018-12-02T05:51:11.064Z,3.37
2018-12-02T05:53:40.883Z,3.50
2018-12-02T05:56:10.339Z,3.30
2018-12-02T05:58:40.156Z,3.37
2018-12-02T06:01:09.746Z,3.53
2018-12-02T06:03:40.093Z,3.93
2018-12-02T06:06:09.888Z,3.40
2018-12-02T06:08:39.381Z,3.40
2018-12-02T06:11:08.890Z,3.27
2018-12-02T06:13:38.375Z,3.60
2018-12-02T06:16:08.213Z,4.67
2018-12-02T06:18:37.708Z,3.87
2018-12-02T06:21:07.153Z,3.63
2018-12-02T06:23:36.599Z,3.50
2018-12-02T06:26:06.367Z,3.90
2018-12-02T06:28:35.725Z,3.70
2018-12-02T06:31:05.239Z,4.10
2018-12-02T06:33:34.680Z,4.30
2018-12-02T06:36:05.127Z,5.00
2018-12-02T06:38:34.714Z,5.47
2018-12-02T06:41:04.632Z,5.37
2018-12-02T06:43:34.115Z,7.10
2018-12-02T06:46:03.603Z,7.23
2018-12-02T06:48:33.031Z,5.27
2018-12-02T06:51:02.551Z,4.80
2018-12-02T06:53:32.769Z,4.97
2018-12-02T06:56:20.889Z,5.07
2018-12-02T07:01:31.877Z,5.07
2018-12-02T07:04:18.226Z,4.13
2018-12-02T07:06:47.858Z,5.23
2018-12-02T07:09:18.863Z,5.90
2018-12-02T07:11:47.319Z,5.20
2018-12-02T07:14:16.774Z,5.43
2018-12-02T07:16:46.528Z,5.33
2018-12-02T07:19:27.939Z,5.00
2018-12-02T07:22:06.731Z,5.77
2018-12-02T07:24:40.991Z,5.47
2018-12-02T07:27:14.328Z,5.90
2018-12-02T07:29:43.975Z,7.07
2018-12-02T07:32:13.737Z,5.80
2018-12-02T07:34:43.211Z,5.10
2018-12-02T07:37:17.104Z,4.87
2018-12-02T07:40:27.743Z,5.37
2018-12-02T07:42:57.203Z,5.50
2018-12-02T07:45:26.675Z,5.43
2018-12-02T07:47:56.214Z,5.07
2018-12-02T07:50:25.697Z,5.30
2018-12-02T07:52:55.095Z,4.90
2018-12-02T07:55:24.588Z,5.70
2018-12-02T07:57:54.646Z,4.87
2018-12-02T08:00:24.030Z,5.03
2018-12-02T08:02:53.516Z,4.83
2018-12-02T08:05:23.138Z,5.10
2018-12-02T08:07:53.126Z,5.17
2018-12-02T08:10:22.573Z,4.67
2018-12-02T08:12:53.119Z,4.62
2018-12-02T08:15:23.374Z,4.47
2018-12-02T08:17:53.504Z,5.10
2018-12-02T08:20:22.919Z,5.20
2018-12-02T08:22:52.363Z,5.03
2018-12-02T08:25:21.941Z,5.10
2018-12-02T08:27:51.603Z,5.73
2018-12-02T08:30:23.812Z,5.30
2018-12-02T08:32:53.816Z,5.20
2018-12-02T08:35:27.509Z,5.03
2018-12-02T08:38:01.223Z,5.23
2018-12-02T08:40:30.681Z,4.67
2018-12-02T08:43:00.233Z,5.10
2018-12-02T08:45:29.787Z,4.80
2018-12-02T08:47:59.880Z,5.30
2018-12-02T08:50:29.304Z,5.43
2018-12-02T08:52:58.689Z,5.53
2018-12-02T08:55:28.201Z,4.97
2018-12-02T08:57:57.671Z,5.87
2018-12-02T09:00:27.665Z,5.47
2018-12-02T09:03:02.430Z,5.73
2018-12-02T09:05:31.944Z,5.87
2018-12-02T09:08:02.257Z,6.60
2018-12-02T09:10:33.201Z,5.43
2018-12-02T09:13:08.290Z,5.97
2018-12-02T09:15:37.757Z,5.37
2018-12-02T09:18:10.572Z,5.17
2018-12-02T09:20:40.176Z,5.10
2018-12-02T09:23:11.619Z,5.23
2018-12-02T09:25:41.200Z,4.90
2018-12-02T09:28:11.004Z,5.47
2018-12-02T09:30:40.628Z,4.87
2018-12-02T09:33:10.195Z,4.80
2018-12-02T09:38:57.457Z,4.80
2018-12-02T09:41:26.906Z,4.47
2018-12-02T09:43:56.470Z,4.50
2018-12-02T09:46:25.963Z,4.23
2018-12-02T09:48:55.509Z,4.37
2018-12-02T09:51:25.032Z,3.73
2018-12-02T09:53:54.743Z,3.70
2018-12-02T09:56:24.252Z,3.77
2018-12-02T09:58:54.252Z,3.33
2018-12-02T10:01:23.817Z,3.93
2018-12-02T10:03:53.398Z,3.77
2018-12-02T10:06:22.843Z,5.10
2018-12-02T10:08:52.408Z,4.75
2018-12-02T10:11:21.854Z,4.47
2018-12-02T10:13:51.238Z,4.87
2018-12-02T10:16:20.621Z,4.33
2018-12-02T10:18:50.069Z,3.60
2018-12-02T10:21:19.559Z,3.00
2018-12-02T10:23:48.954Z,2.87
2018-12-02T10:26:18.411Z,3.03
2018-12-02T10:28:48.467Z,3.40
2018-12-02T10:31:17.921Z,3.43
2018-12-02T10:33:47.521Z,3.07
2018-12-02T10:36:16.895Z,3.00
2018-12-02T10:38:47.585Z,2.80
2018-12-02T10:41:16.960Z,2.60
2018-12-02T10:43:46.451Z,3.20
2018-12-02T10:46:15.938Z,2.33
2018-12-02T10:48:45.369Z,2.60
2018-12-02T10:51:14.887Z,2.43
2018-12-02T10:53:44.236Z,2.70
2018-12-02T10:56:13.775Z,2.17
2018-12-02T10:58:43.192Z,2.60
2018-12-02T11:01:18.287Z,2.40
2018-12-02T11:03:48.696Z,2.47
2018-12-02T11:06:18.054Z,1.97
2018-12-02T11:08:47.442Z,1.90
2018-12-02T11:11:16.847Z,2.40
2018-12-02T11:13:46.281Z,2.15
2018-12-02T11:16:15.742Z,2.00
2018-12-02T11:18:45.211Z,1.77
2018-12-02T11:21:15.230Z,1.80
2018-12-02T11:23:44.764Z,3.40
2018-12-02T11:26:14.393Z,2.50
2018-12-02T11:28:43.842Z,2.03
2018-12-02T11:31:13.378Z,1.90
2018-12-02T11:33:43.318Z,1.70
2018-12-02T11:36:12.783Z,2.10
2018-12-02T11:38:42.239Z,1.73
2018-12-02T11:41:11.749Z,1.90
2018-12-02T11:43:41.231Z,1.55
2018-12-02T11:46:11.198Z,2.00
2018-12-02T11:48:40.620Z,1.60
2018-12-02T11:51:10.176Z,1.60
2018-12-02T11:53:39.799Z,1.42
2018-12-02T11:56:09.317Z,1.20
2018-12-02T11:58:38.779Z,1.40
2018-12-02T12:01:08.566Z,1.40
2018-12-02T12:03:38.071Z,1.30
2018-12-02T12:06:07.558Z,1.40
2018-12-02T12:08:36.980Z,1.35
2018-12-02T12:11:06.726Z,1.60
2018-12-02T12:13:36.295Z,1.63
2018-12-02T12:16:05.889Z,1.50
2018-12-02T12:18:35.390Z,1.40
2018-12-02T12:21:04.879Z,1.30
2018-12-02T12:23:34.502Z,1.60
2018-12-02T12:26:04.112Z,1.47
2018-12-02T12:28:33.588Z,1.40
2018-12-02T12:31:03.022Z,1.50
2018-12-02T12:33:32.986Z,1.35
2018-12-02T12:36:02.554Z,1.40
2018-12-02T12:38:31.948Z,1.23
2018-12-02T12:41:01.368Z,0.93
2018-12-02T12:43:34.307Z,1.27
2018-12-02T12:46:04.243Z,1.10
2018-12-02T12:48:34.209Z,1.10
2018-12-02T12:51:03.737Z,1.10
2018-12-02T12:53:34.095Z,0.80
2018-12-02T12:56:03.566Z,1.15
2018-12-02T12:58:33.794Z,1.10
2018-12-02T13:01:03.369Z,1.17
2018-12-02T13:03:32.768Z,0.95
2018-12-02T13:06:02.719Z,0.87
2018-12-02T13:08:32.849Z,0.90
2018-12-02T13:11:02.256Z,0.90
2018-12-02T13:13:31.948Z,0.95
2018-12-02T13:16:02.832Z,1.40
2018-12-02T13:18:32.232Z,1.10
2018-12-02T13:21:01.694Z,1.20
2018-12-02T13:23:31.166Z,1.00
2018-12-02T13:26:00.622Z,0.77
2018-12-02T13:28:30.139Z,0.80
2018-12-02T13:31:00.495Z,0.60
2018-12-02T13:33:30.447Z,0.70
2018-12-02T13:35:59.863Z,0.50
2018-12-02T13:38:29.415Z,0.60
2018-12-02T13:40:59.478Z,0.53
2018-12-02T13:43:29.634Z,0.60
2018-12-02T13:45:58.993Z,0.63
2018-12-02T13:48:29.103Z,0.60
2018-12-02T13:50:59.194Z,0.40
2018-12-02T13:53:28.742Z,0.40
2018-12-02T13:55:58.967Z,0.70
2018-12-02T13:58:28.632Z,0.47
2018-12-02T14:00:58.055Z,0.50
2018-12-02T14:03:27.732Z,0.80
2018-12-02T14:05:57.092Z,0.67
2018-12-02T14:08:26.448Z,0.60
2018-12-02T14:10:55.915Z,0.53
2018-12-02T14:13:28.375Z,0.43
2018-12-02T14:17:12.211Z,0.47
2018-12-02T14:19:44.219Z,0.33
2018-12-02T14:22:13.648Z,0.40
2018-12-02T14:24:43.236Z,0.50
2018-12-02T14:27:13.913Z,0.73
2018-12-02T14:29:51.211Z,0.50
2018-12-02T14:32:22.367Z,0.50
2018-12-02T14:34:52.261Z,0.70
2018-12-02T14:37:21.901Z,0.65
2018-12-02T14:39:51.428Z,0.70
2018-12-02T14:42:20.918Z,0.45
2018-12-02T14:44:50.288Z,0.47
2018-12-02T14:47:20.390Z,0.40
2018-12-02T14:49:49.988Z,0.40
2018-12-02T14:52:19.414Z,0.30
2018-12-02T14:54:48.895Z,0.40
2018-12-02T14:57:18.333Z,0.53
2018-12-02T14:59:47.703Z,0.50
2018-12-02T15:02:17.206Z,0.47
2018-12-02T15:04:46.709Z,0.43
2018-12-02T15:07:16.068Z,0.47
2018-12-02T15:09:45.534Z,0.23
2018-12-02T15:12:15.056Z,0.30
2018-12-02T15:14:44.454Z,0.40
2018-12-02T15:17:13.812Z,0.40
2018-12-02T15:19:43.235Z,0.50
2018-12-02T15:22:12.677Z,0.40
2018-12-02T15:24:42.188Z,0.53
2018-12-02T15:27:11.706Z,0.60
2018-12-02T15:29:41.327Z,0.50
2018-12-02T15:32:10.855Z,0.70
2018-12-02T15:34:40.452Z,0.70
2018-12-02T15:37:09.927Z,0.40
2018-12-02T15:39:39.345Z,0.40
2018-12-02T15:42:08.825Z,0.50
2018-12-02T15:44:38.302Z,0.30
2018-12-02T15:47:07.990Z,0.50
2018-12-02T15:49:37.516Z,0.35
2018-12-02T15:52:07.499Z,0.70
2018-12-02T15:54:37.051Z,0.33
2018-12-02T15:57:06.619Z,0.37
2018-12-02T15:59:36.153Z,0.40
2018-12-02T16:02:05.928Z,0.60
2018-12-02T16:04:35.656Z,0.30
2018-12-02T16:07:05.187Z,0.67
2018-12-02T16:09:34.806Z,0.40
2018-12-02T16:12:05.007Z,0.40
2018-12-02T16:14:34.389Z,0.50
2018-12-02T16:17:04.396Z,0.68
2018-12-02T16:19:34.809Z,0.50
2018-12-02T16:22:04.492Z,0.60
2018-12-02T16:24:33.946Z,0.30
2018-12-02T16:27:03.650Z,0.30
2018-12-02T16:29:33.194Z,0.40
2018-12-02T16:32:02.635Z,0.50
2018-12-02T16:34:32.094Z,0.40
2018-12-02T16:37:01.710Z,0.65
2018-12-02T16:39:31.098Z,0.40
2018-12-02T16:42:00.983Z,0.30
2018-12-02T16:44:31.388Z,0.23
2018-12-02T16:47:01.065Z,0.20
2018-12-02T16:49:30.577Z,0.23
2018-12-02T16:52:00.264Z,0.40
2018-12-02T16:54:29.853Z,0.30
2018-12-02T16:56:59.742Z,0.30
2018-12-02T16:59:32.570Z,0.40
2018-12-02T17:02:05.230Z,0.37
2018-12-02T17:04:33.965Z,0.30
2018-12-02T17:07:03.662Z,0.40
2018-12-02T17:09:33.157Z,0.30
2018-12-02T17:12:02.713Z,0.53
2018-12-02T17:14:32.161Z,0.30
2018-12-02T17:17:01.715Z,0.43
2018-12-02T17:19:31.550Z,0.30
2018-12-02T17:22:01.288Z,0.23
2018-12-02T17:24:33.263Z,0.30
2018-12-02T17:27:03.074Z,0.42
2018-12-02T17:29:32.819Z,0.40
2018-12-02T17:32:08.331Z,0.30
2018-12-02T17:34:37.869Z,0.43
2018-12-02T17:37:08.263Z,0.33
2018-12-02T17:39:43.997Z,0.50
2018-12-02T17:42:14.163Z,0.40
2018-12-02T17:44:43.691Z,0.42
2018-12-02T17:47:14.043Z,0.40
2018-12-02T17:49:43.614Z,0.40
2018-12-02T17:52:13.224Z,0.30
2018-12-02T17:54:42.748Z,0.45
2018-12-02T17:57:12.295Z,0.40
2018-12-02T17:59:41.838Z,0.47
2018-12-02T18:02:11.995Z,0.42
2018-12-02T18:04:41.599Z,0.90
2018-12-02T18:07:11.230Z,0.35
2018-12-02T18:09:40.691Z,0.30
2018-12-02T18:12:11.332Z,0.70
2018-12-02T18:14:40.777Z,0.23
2018-12-02T18:17:10.345Z,0.20
2018-12-02T18:19:39.872Z,0.50
2018-12-02T18:22:09.324Z,0.40
2018-12-02T18:24:38.715Z,0.33
2018-12-02T18:27:08.287Z,0.30
2018-12-02T18:29:37.698Z,0.30
2018-12-02T18:32:07.304Z,0.65
2018-12-02T18:34:37.005Z,0.50
2018-12-02T18:37:09.391Z,0.40
2018-12-02T18:39:38.820Z,0.30
2018-12-02T18:42:09.447Z,0.28
2018-12-02T18:44:38.827Z,0.40
2018-12-02T18:47:08.283Z,0.20
2018-12-02T18:49:37.747Z,0.20
2018-12-02T18:52:07.792Z,0.17
2018-12-02T18:54:37.252Z,0.30
2018-12-02T18:57:07.232Z,0.30
2018-12-02T18:59:36.682Z,0.20
2018-12-02T19:02:07.033Z,0.30
2018-12-02T19:04:36.434Z,0.40
2018-12-02T19:07:06.018Z,0.30
2018-12-02T19:09:35.515Z,0.30
2018-12-02T19:12:05.312Z,0.40
2018-12-02T19:14:35.028Z,0.30
2018-12-02T19:17:04.647Z,0.30
2018-12-02T19:19:34.076Z,0.47
2018-12-02T19:22:03.508Z,0.30
2018-12-02T19:24:33.394Z,0.40
2018-12-02T19:27:02.860Z,0.40
2018-12-02T19:29:32.309Z,0.30
2018-12-02T19:32:01.807Z,0.30
2018-12-02T19:34:31.341Z,0.30
2018-12-02T19:37:04.790Z,0.30
2018-12-02T19:39:34.306Z,0.47
2018-12-02T19:42:03.755Z,0.28
2018-12-02T19:44:33.189Z,0.40
2018-12-02T19:47:02.533Z,0.35
2018-12-02T19:49:32.539Z,0.20
2018-12-02T19:52:01.979Z,0.30
2018-12-02T19:54:31.761Z,0.30
2018-12-02T19:57:01.139Z,0.20
2018-12-02T19:59:30.574Z,0.20
2018-12-02T20:02:00.010Z,0.20
2018-12-02T20:04:29.474Z,0.47
2018-12-02T20:06:58.855Z,0.40
2018-12-02T20:09:28.229Z,0.20
2018-12-02T20:11:57.584Z,0.23
2018-12-02T20:14:27.151Z,0.25
2018-12-02T20:16:56.560Z,0.30
2018-12-02T20:19:31.281Z,0.30
2018-12-02T20:22:00.812Z,0.30
2018-12-02T20:24:35.488Z,0.40
2018-12-02T20:27:05.238Z,0.30
2018-12-02T20:29:36.127Z,0.30
2018-12-02T20:32:07.752Z,0.20
2018-12-02T20:34:37.455Z,0.40
2018-12-02T20:37:07.930Z,0.40
2018-12-02T20:39:37.307Z,0.50
2018-12-02T20:42:07.241Z,0.40
2018-12-02T20:44:36.675Z,0.40
2018-12-02T20:47:06.849Z,0.30
2018-12-02T20:49:36.238Z,0.40
2018-12-02T20:52:06.075Z,0.50
2018-12-02T20:54:35.604Z,0.60
2018-12-02T20:57:05.213Z,0.50
2018-12-02T20:59:34.696Z,0.55
2018-12-02T21:02:04.258Z,0.37
2018-12-02T21:04:33.815Z,0.33
2018-12-02T21:07:03.923Z,0.40
2018-12-02T21:09:33.384Z,0.42
2018-12-02T21:12:03.715Z,0.40
2018-12-02T21:14:33.209Z,0.50
2018-12-02T21:17:03.423Z,0.55
2018-12-02T21:19:32.992Z,0.60
2018-12-02T21:22:02.568Z,0.80
2018-12-02T21:24:32.083Z,0.70
2018-12-02T21:27:01.536Z,0.40
2018-12-02T21:29:31.062Z,0.70
2018-12-02T21:32:00.806Z,0.53
2018-12-02T21:34:30.331Z,0.60
2018-12-02T21:36:59.711Z,0.70
2018-12-02T21:39:29.202Z,0.93
2018-12-02T21:41:58.752Z,0.65
2018-12-02T21:44:28.499Z,0.70
2018-12-02T21:46:58.654Z,0.90
2018-12-02T21:49:28.207Z,0.80
2018-12-02T21:51:57.830Z,0.80
2018-12-02T21:56:56.927Z,0.80
2018-12-02T21:59:26.338Z,0.62
2018-12-02T22:01:55.696Z,0.68
2018-12-02T22:04:25.080Z,0.70
2018-12-02T22:06:54.554Z,0.80
2018-12-02T22:09:24.132Z,0.62
2018-12-02T22:11:53.539Z,0.62
2018-12-02T22:14:22.891Z,0.60
2018-12-02T22:16:52.314Z,0.90
2018-12-02T22:19:21.779Z,0.80
2018-12-02T22:21:51.230Z,0.82
2018-12-02T22:24:20.602Z,1.10
2018-12-02T22:26:50.124Z,0.90
2018-12-02T22:29:19.611Z,0.88
2018-12-02T22:31:49.017Z,0.88
2018-12-02T22:34:18.434Z,0.60
2018-12-02T22:36:47.913Z,0.65
2018-12-02T22:39:17.385Z,0.90
2018-12-02T22:41:46.785Z,0.78
2018-12-02T22:44:16.189Z,0.68
2018-12-02T22:46:46.423Z,0.75
2018-12-02T22:49:15.894Z,0.70
2018-12-02T22:51:45.304Z,0.60
2018-12-02T22:54:14.701Z,0.70
2018-12-02T22:56:44.067Z,0.80
2018-12-02T22:59:13.444Z,0.68
2018-12-02T23:01:47.975Z,0.60
2018-12-02T23:04:17.390Z,0.70
2018-12-02T23:06:46.833Z,0.50
2018-12-02T23:09:16.256Z,0.80
2018-12-02T23:11:45.635Z,0.65
2018-12-02T23:14:15.124Z,0.57
2018-12-02T23:17:00.293Z,0.80
2018-12-02T23:19:29.768Z,0.50
2018-12-02T23:21:59.182Z,0.60
2018-12-02T23:24:28.586Z,0.72
2018-12-02T23:26:57.981Z,0.72
2018-12-02T23:29:27.389Z,0.60
2018-12-02T23:31:56.935Z,0.60
2018-12-02T23:34:26.380Z,0.90
2018-12-02T23:36:55.811Z,0.42
2018-12-02T23:39:25.229Z,0.60
2018-12-02T23:41:54.699Z,0.40
2018-12-02T23:44:24.083Z,0.47
2018-12-02T23:47:00.143Z,0.68
2018-12-02T23:49:29.573Z,0.40
2018-12-02T23:51:59.014Z,0.40
2018-12-02T23:54:28.412Z,0.47
2018-12-02T23:56:57.821Z,0.40
2018-12-02T23:59:27.269Z,0.60
